Terminal Aerodrome Forecast
Issued by NWS Wilmington, OH

Home | Current Version | Previous Version | Text Only | Print | Product List | Glossary On
Versions: 1 2 3 4 5 6 7 8 9 10 11 12 13 14 15 16 17
000
FTUS41 KILN 311132
TAFDAY
TAF
KDAY 311132Z 3112/0112 26006KT P6SM SKC
     FM311700 28010G18KT P6SM SCT050
     FM010200 27007KT P6SM SCT080=

USA.gov is the U.S. government's official web portal to all federal, state and local government web resources and services.